createdAt,value
2014-07-13T00:00:10.330Z,25.4
2014-07-13T00:00:28.783Z,25.4
2014-07-13T00:00:46.408Z,25.4
2014-07-13T00:01:04.674Z,25.4
2014-07-13T00:01:22.348Z,25.4
2014-07-13T00:01:39.910Z,25.4
2014-07-13T00:01:58.176Z,25.4
2014-07-13T00:02:16.397Z,25.4
2014-07-13T00:02:34.631Z,25.4
2014-07-13T00:02:52.272Z,25.4
2014-07-13T00:03:09.287Z,25.4
2014-07-13T00:03:26.899Z,25.4
2014-07-13T00:03:45.133Z,25.4
2014-07-13T00:04:03.352Z,25.4
2014-07-13T00:04:20.462Z,25.4
2014-07-13T00:04:38.697Z,25.4
2014-07-13T00:04:56.290Z,25.4
2014-07-13T00:05:13.884Z,25.4
2014-07-13T00:05:30.997Z,25.4
2014-07-13T00:05:49.231Z,25.4
2014-07-13T00:06:06.200Z,25.4
2014-07-13T00:06:24.513Z,25.4
2014-07-13T00:06:42.748Z,25.4
2014-07-13T00:07:01.107Z,25.4
2014-07-13T00:07:17.498Z,25.4
2014-07-13T00:07:35.110Z,25.4
2014-07-13T00:07:53.329Z,25.4
2014-07-13T00:08:10.313Z,25.4
2014-07-13T00:08:27.955Z,25.4
2014-07-13T00:08:46.189Z,25.4
2014-07-13T00:09:03.939Z,25.4
2014-07-13T00:09:21.486Z,25.4
2014-07-13T00:09:39.097Z,25.4
2014-07-13T00:09:57.316Z,25.4
2014-07-13T00:10:15.785Z,25.4
2014-07-13T00:10:32.756Z,25.4
2014-07-13T00:10:50.365Z,25.4
2014-07-13T00:11:07.334Z,25.4
2014-07-13T00:11:24.927Z,25.4
2014-07-13T00:11:43.164Z,25.4
2014-07-13T00:12:01.398Z,25.4
2014-07-13T00:12:18.992Z,25.4
2014-07-13T00:12:36.588Z,25.4
2014-07-13T00:12:53.556Z,25.4
2014-07-13T00:13:11.166Z,25.4
2014-07-13T00:13:28.760Z,25.4
2014-07-13T00:13:46.997Z,25.4
2014-07-13T00:14:05.216Z,25.4
2014-07-13T00:14:23.450Z,25.4
2014-07-13T00:14:41.764Z,25.4
2014-07-13T00:14:59.357Z,25.4
2014-07-13T00:15:17.592Z,25.4
2014-07-13T00:15:35.185Z,25.4
2014-07-13T00:15:53.626Z,25.4
2014-07-13T00:16:11.938Z,25.4
2014-07-13T00:16:30.126Z,25.4
2014-07-13T00:16:47.799Z,25.4
2014-07-13T00:17:06.018Z,25.4
2014-07-13T00:17:22.986Z,25.4
2014-07-13T00:17:40.596Z,25.4
2014-07-13T00:17:57.567Z,25.4
2014-07-13T00:18:15.802Z,25.4
2014-07-13T00:18:33.396Z,25.4
2014-07-13T00:18:51.005Z,25.4
2014-07-13T00:19:07.976Z,25.4
2014-07-13T00:19:26.210Z,25.4
2014-07-13T00:19:44.444Z,25.4
2014-07-13T00:20:02.743Z,25.4
2014-07-13T00:20:19.681Z,25.4
2014-07-13T00:20:37.275Z,25.4
2014-07-13T00:20:55.634Z,25.4
2014-07-13T00:21:13.822Z,25.4
2014-07-13T00:21:31.463Z,25.4
2014-07-13T00:21:49.057Z,25.4
2014-07-13T00:22:06.699Z,25.4
2014-07-13T00:22:24.356Z,25.4
2014-07-13T00:22:41.996Z,25.4
2014-07-13T00:22:58.340Z,25.4
2014-07-13T00:23:15.952Z,25.4
2014-07-13T00:23:34.171Z,25.3
2014-07-13T00:23:52.406Z,25.3
2014-07-13T00:24:10.015Z,25.3
2014-07-13T00:24:28.251Z,25.3
2014-07-13T00:24:46.517Z,25.3
2014-07-13T00:25:04.189Z,25.4
2014-07-13T00:25:21.769Z,25.4
2014-07-13T00:25:39.363Z,25.4
2014-07-13T00:25:57.628Z,25.3
2014-07-13T00:26:14.613Z,25.4
2014-07-13T00:26:32.224Z,25.3
2014-07-13T00:26:50.458Z,25.3
2014-07-13T00:27:08.740Z,25.3
2014-07-13T00:27:27.007Z,25.3
2014-07-13T00:27:44.617Z,25.4
2014-07-13T00:28:02.367Z,25.4
2014-07-13T00:28:18.726Z,25.4
2014-07-13T00:28:36.337Z,25.4
2014-07-13T00:28:53.931Z,25.4
2014-07-13T00:29:12.166Z,25.4
2014-07-13T00:29:30.400Z,25.3
2014-07-13T00:29:48.621Z,25.3
2014-07-13T00:30:06.902Z,25.3
2014-07-13T00:30:23.261Z,25.3
2014-07-13T00:30:41.483Z,25.3
2014-07-13T00:30:59.108Z,25.3
2014-07-13T00:31:17.327Z,25.4
2014-07-13T00:31:35.561Z,25.4
2014-07-13T00:31:53.203Z,25.4
2014-07-13T00:32:11.422Z,25.4
2014-07-13T00:32:29.078Z,25.4
2014-07-13T00:32:47.314Z,25.4
2014-07-13T00:33:05.549Z,25.4
2014-07-13T00:33:23.799Z,25.4
2014-07-13T00:33:41.470Z,25.4
2014-07-13T00:34:29.973Z,25.4
2014-07-13T00:34:47.598Z,25.4
2014-07-13T00:35:05.302Z,25.4
2014-07-13T00:35:22.257Z,25.4
2014-07-13T00:35:39.991Z,25.4
2014-07-13T00:35:58.225Z,25.4
2014-07-13T00:36:16.444Z,25.4
2014-07-13T00:36:33.431Z,25.4
2014-07-13T00:36:51.165Z,25.4
2014-07-13T00:37:08.759Z,25.4
2014-07-13T00:37:26.370Z,25.4
2014-07-13T00:37:43.979Z,25.3
2014-07-13T00:38:02.214Z,25.4
2014-07-13T00:38:19.933Z,25.4
2014-07-13T00:38:36.919Z,25.4
2014-07-13T00:38:55.138Z,25.4
2014-07-13T00:39:11.497Z,25.4
2014-07-13T00:39:29.718Z,25.4
2014-07-13T00:39:46.702Z,25.4
2014-07-13T00:40:04.921Z,25.4
2014-07-13T00:40:21.905Z,25.3
2014-07-13T00:40:39.502Z,25.4
2014-07-13T00:40:57.721Z,25.4
2014-07-13T00:41:15.330Z,25.3
2014-07-13T00:41:32.924Z,25.3
2014-07-13T00:41:51.159Z,25.3
2014-07-13T00:42:08.753Z,25.4
2014-07-13T00:42:26.987Z,25.4
2014-07-13T00:42:45.208Z,25.4
2014-07-13T00:43:03.443Z,25.4
2014-07-13T00:43:21.177Z,25.4
2014-07-13T00:43:38.161Z,25.4
2014-07-13T00:43:55.133Z,25.4
2014-07-13T00:44:13.367Z,25.4
2014-07-13T00:44:30.977Z,25.4
2014-07-13T00:44:47.946Z,25.4
2014-07-13T00:45:06.165Z,25.4
2014-07-13T00:45:23.150Z,25.4
2014-07-13T00:45:40.743Z,25.4
2014-07-13T00:45:57.714Z,25.4
2014-07-13T00:46:14.699Z,25.4
2014-07-13T00:46:31.667Z,25.4
2014-07-13T00:46:49.886Z,25.4
2014-07-13T00:47:08.122Z,25.4
2014-07-13T00:47:25.716Z,25.4
2014-07-13T00:47:43.951Z,25.4
2014-07-13T00:48:01.562Z,25.4
2014-07-13T00:48:18.531Z,25.4
2014-07-13T00:48:36.749Z,25.4
2014-07-13T00:48:54.359Z,25.4
2014-07-13T00:49:11.955Z,25.4
2014-07-13T00:49:28.923Z,25.4
2014-07-13T00:49:46.517Z,25.4
2014-07-13T00:50:04.754Z,25.4
2014-07-13T00:50:22.973Z,25.4
2014-07-13T00:50:40.567Z,25.4
2014-07-13T00:50:58.176Z,25.4
2014-07-13T00:51:15.147Z,25.4
2014-07-13T00:51:33.366Z,25.4
2014-07-13T00:51:50.975Z,25.4
2014-07-13T00:52:08.571Z,25.5
2014-07-13T00:52:26.180Z,25.5
2014-07-13T00:52:43.774Z,25.5
2014-07-13T00:53:01.383Z,25.4
2014-07-13T00:53:18.979Z,25.4
2014-07-13T00:53:36.573Z,25.4
2014-07-13T00:53:54.807Z,25.4
2014-07-13T00:54:12.403Z,25.4
2014-07-13T00:54:29.372Z,25.4
2014-07-13T00:54:46.341Z,25.4
2014-07-13T00:55:03.950Z,25.4
2014-07-13T00:55:21.546Z,25.4
2014-07-13T00:55:39.780Z,25.4
2014-07-13T00:55:57.999Z,25.4
2014-07-13T00:56:15.608Z,25.4
2014-07-13T00:56:33.828Z,25.4
2014-07-13T00:56:52.047Z,25.4
2014-07-13T00:57:09.656Z,25.4
2014-07-13T00:57:28.017Z,25.4
2014-07-13T00:57:45.611Z,25.4
2014-07-13T00:58:02.596Z,25.4
2014-07-13T00:58:19.564Z,25.4
2014-07-13T00:58:37.786Z,25.4
2014-07-13T00:58:56.020Z,25.4
2014-07-13T00:59:13.614Z,25.4
2014-07-13T00:59:31.208Z,25.4
2014-07-13T00:59:49.443Z,25.4
2014-07-13T01:00:06.412Z,25.5
2014-07-13T01:00:24.646Z,25.4
2014-07-13T01:00:41.617Z,25.4
2014-07-13T01:00:59.211Z,25.4
2014-07-13T01:01:17.445Z,25.4
2014-07-13T01:01:35.680Z,25.4
2014-07-13T01:01:53.275Z,25.4
2014-07-13T01:02:10.244Z,25.4
2014-07-13T01:02:27.979Z,25.4
2014-07-13T01:02:46.199Z,25.4
2014-07-13T01:03:03.809Z,25.4
2014-07-13T01:03:21.402Z,25.4
2014-07-13T01:03:39.012Z,25.4
2014-07-13T01:03:55.984Z,25.5
2014-07-13T01:04:13.577Z,25.5
2014-07-13T01:04:31.937Z,25.5
2014-07-13T01:04:49.548Z,25.5
2014-07-13T01:05:07.142Z,25.4
2014-07-13T01:05:25.376Z,25.4
2014-07-13T01:05:43.595Z,25.5
2014-07-13T01:06:01.331Z,25.4
2014-07-13T01:06:18.941Z,25.4
2014-07-13T01:06:36.534Z,25.5
2014-07-13T01:06:54.771Z,25.4
2014-07-13T01:07:12.990Z,25.4
2014-07-13T01:07:31.224Z,25.4
2014-07-13T01:07:48.819Z,25.4
2014-07-13T01:08:06.412Z,25.4
2014-07-13T01:08:24.022Z,25.4
2014-07-13T01:08:41.616Z,25.4
2014-07-13T01:08:59.853Z,25.4
2014-07-13T01:09:17.447Z,25.4
2014-07-13T01:09:35.681Z,25.4
2014-07-13T01:09:53.901Z,25.4
2014-07-13T01:10:12.135Z,25.4
2014-07-13T01:10:30.354Z,25.4
2014-07-13T01:10:47.963Z,25.4
2014-07-13T01:11:06.325Z,25.4
2014-07-13T01:11:23.918Z,25.4
2014-07-13T01:11:41.528Z,25.4
2014-07-13T01:11:59.124Z,25.4
2014-07-13T01:12:16.733Z,25.4
2014-07-13T01:12:35.092Z,25.4
2014-07-13T01:12:53.330Z,25.4
2014-07-13T01:13:11.064Z,25.4
2014-07-13T01:13:29.283Z,25.4
2014-07-13T01:13:46.892Z,25.4
2014-07-13T01:14:05.112Z,25.4
2014-07-13T01:14:23.346Z,25.4
2014-07-13T01:14:40.940Z,25.4
2014-07-13T01:14:58.551Z,25.4
2014-07-13T01:15:16.786Z,25.4
2014-07-13T01:15:35.005Z,25.4
2014-07-13T01:15:51.364Z,25.4
2014-07-13T01:16:09.600Z,25.4
2014-07-13T01:16:27.819Z,25.5
2014-07-13T01:16:46.053Z,25.4
2014-07-13T01:17:03.024Z,25.4
2014-07-13T01:17:19.993Z,25.4
2014-07-13T01:17:38.227Z,25.4
2014-07-13T01:17:55.196Z,25.4
2014-07-13T01:18:13.432Z,25.4
2014-07-13T01:18:31.026Z,25.4
2014-07-13T01:18:49.261Z,25.4
2014-07-13T01:19:06.231Z,25.4
2014-07-13T01:19:23.825Z,25.4
2014-07-13T01:19:42.059Z,25.4
2014-07-13T01:20:00.278Z,25.4
2014-07-13T01:20:17.265Z,25.4
2014-07-13T01:20:34.858Z,25.4
2014-07-13T01:20:53.093Z,25.4
2014-07-13T01:21:10.688Z,25.4
2014-07-13T01:21:28.923Z,25.4
2014-07-13T01:21:46.517Z,25.4
2014-07-13T01:22:04.751Z,25.4
2014-07-13T01:22:22.347Z,25.4
2014-07-13T01:22:39.940Z,25.4
2014-07-13T01:22:56.925Z,25.4
2014-07-13T01:23:14.521Z,25.4
2014-07-13T01:23:31.489Z,25.4
2014-07-13T01:23:49.724Z,25.4
2014-07-13T01:24:07.317Z,25.4
2014-07-13T01:24:25.554Z,25.4
2014-07-13T01:24:43.148Z,25.4
2014-07-13T01:25:00.757Z,25.4
2014-07-13T01:25:18.368Z,25.4
2014-07-13T01:25:36.587Z,25.4
2014-07-13T01:25:54.196Z,25.4
2014-07-13T01:26:12.431Z,25.4
2014-07-13T01:26:30.652Z,25.4
2014-07-13T01:26:48.261Z,25.4
2014-07-13T01:27:05.855Z,25.4
2014-07-13T01:27:22.825Z,25.3
2014-07-13T01:27:39.794Z,25.3
2014-07-13T01:27:57.404Z,25.3
2014-07-13T01:28:15.638Z,25.3
2014-07-13T01:28:33.859Z,25.3
2014-07-13T01:28:52.093Z,25.3
2014-07-13T01:29:09.702Z,25.4
2014-07-13T01:29:27.298Z,25.4
2014-07-13T01:29:45.658Z,25.4
2014-07-13T01:30:03.892Z,25.4
2014-07-13T01:30:22.126Z,25.4
2014-07-13T01:30:40.347Z,25.4
2014-07-13T01:30:57.956Z,25.3
2014-07-13T01:31:16.175Z,25.3
2014-07-13T01:31:34.412Z,25.3
2014-07-13T01:31:51.380Z,25.3
2014-07-13T01:32:08.990Z,25.3
2014-07-13T01:32:27.208Z,25.3
2014-07-13T01:32:45.445Z,25.4
2014-07-13T01:33:03.679Z,25.3
2014-07-13T01:33:21.914Z,25.4
2014-07-13T01:33:38.884Z,25.4
2014-07-13T01:33:56.619Z,25.4
2014-07-13T01:34:14.212Z,25.4
2014-07-13T01:34:32.447Z,25.4
2014-07-13T01:34:50.683Z,25.4
2014-07-13T01:35:08.902Z,25.3
2014-07-13T01:35:26.511Z,25.3
2014-07-13T01:35:44.106Z,25.3
2014-07-13T01:36:01.075Z,25.3
2014-07-13T01:36:19.309Z,25.3
2014-07-13T01:36:36.296Z,25.3
2014-07-13T01:36:53.889Z,25.3
2014-07-13T01:37:12.124Z,25.3
2014-07-13T01:37:29.717Z,25.3
2014-07-13T01:37:47.955Z,25.3
2014-07-13T01:38:06.174Z,25.3
2014-07-13T01:38:23.783Z,25.3
2014-07-13T01:38:41.378Z,25.3
2014-07-13T01:38:58.987Z,25.3
2014-07-13T01:39:16.581Z,25.3
2014-07-13T01:39:34.817Z,25.3
2014-07-13T01:39:52.411Z,25.3
2014-07-13T01:40:09.520Z,25.3
2014-07-13T01:40:27.130Z,25.3
2014-07-13T01:40:44.100Z,25.3
2014-07-13T01:41:02.335Z,25.3
2014-07-13T01:41:19.304Z,25.3
2014-07-13T01:41:37.540Z,25.3
2014-07-13T01:41:55.759Z,25.3
2014-07-13T01:42:13.368Z,25.3
2014-07-13T01:42:30.962Z,25.3
2014-07-13T01:42:49.198Z,25.3
2014-07-13T01:43:07.417Z,25.3
2014-07-13T01:43:25.651Z,25.3
2014-07-13T01:43:43.888Z,25.3
2014-07-13T01:44:01.481Z,25.3
2014-07-13T01:44:19.075Z,25.3
2014-07-13T01:44:36.812Z,25.3
2014-07-13T01:44:55.062Z,25.3
2014-07-13T01:45:13.280Z,25.3
2014-07-13T01:45:31.499Z,25.3
2014-07-13T01:45:49.235Z,25.3
2014-07-13T01:46:06.845Z,25.3
2014-07-13T01:46:23.814Z,25.3
2014-07-13T01:46:42.049Z,25.3
2014-07-13T01:47:00.283Z,25.3
2014-07-13T01:47:17.893Z,25.3
2014-07-13T01:47:35.504Z,25.3
2014-07-13T01:47:53.723Z,25.2
2014-07-13T01:48:11.332Z,25.2
2014-07-13T01:48:28.926Z,25.2
2014-07-13T01:48:47.163Z,25.2
2014-07-13T01:49:05.382Z,25.2
2014-07-13T01:49:23.616Z,25.2
2014-07-13T01:49:41.228Z,25.2
2014-07-13T01:49:58.822Z,25.2
2014-07-13T01:50:17.040Z,25.2
2014-07-13T01:50:33.386Z,25.2
2014-07-13T01:50:50.995Z,25.2
2014-07-13T01:51:09.230Z,25.2
2014-07-13T01:51:26.824Z,25.2
2014-07-13T01:51:45.059Z,25.2
2014-07-13T01:52:02.028Z,25.2
2014-07-13T01:52:20.262Z,25.2
2014-07-13T01:52:37.858Z,25.2
2014-07-13T01:52:54.827Z,25.2
2014-07-13T01:53:12.436Z,25.2
2014-07-13T01:53:30.030Z,25.2
2014-07-13T01:53:48.266Z,25.2
2014-07-13T01:54:05.860Z,25.2
2014-07-13T01:54:23.454Z,25.2
2014-07-13T01:54:40.440Z,25.2
2014-07-13T01:54:58.034Z,25.2
2014-07-13T01:55:16.409Z,25.2
2014-07-13T01:55:34.629Z,25.2
2014-07-13T01:55:52.239Z,25.2
2014-07-13T01:56:10.458Z,25.2
2014-07-13T01:56:28.067Z,25.2
2014-07-13T01:56:46.288Z,25.2
2014-07-13T01:57:03.881Z,25.2
2014-07-13T01:57:22.116Z,25.2
2014-07-13T01:57:38.462Z,25.2
2014-07-13T01:57:56.055Z,25.2
2014-07-13T01:58:14.274Z,25.2
2014-07-13T01:58:31.258Z,25.2
2014-07-13T01:58:49.479Z,25.2
2014-07-13T01:59:07.714Z,25.2
2014-07-13T01:59:25.932Z,25.2
2014-07-13T01:59:44.169Z,25.2
2014-07-13T02:00:01.153Z,25.2
2014-07-13T02:00:19.372Z,25.2
2014-07-13T02:00:37.608Z,25.2
2014-07-13T02:00:55.202Z,25.2
2014-07-13T02:01:13.436Z,25.2
2014-07-13T02:01:31.030Z,25.2
2014-07-13T02:01:48.016Z,25.2
2014-07-13T02:02:05.595Z,25.2
2014-07-13T02:02:23.970Z,25.2
2014-07-13T02:02:41.564Z,25.2
2014-07-13T02:02:59.799Z,25.2
2014-07-13T02:03:17.392Z,25.2
2014-07-13T02:03:35.613Z,25.2
2014-07-13T02:03:52.598Z,25.2
2014-07-13T02:04:10.816Z,25.2
2014-07-13T02:04:28.426Z,25.2
2014-07-13T02:04:46.646Z,25.2
2014-07-13T02:05:04.881Z,25.2
2014-07-13T02:05:22.490Z,25.2
2014-07-13T02:05:40.086Z,25.2
2014-07-13T02:05:58.320Z,25.2
2014-07-13T02:06:16.555Z,25.2
2014-07-13T02:06:34.775Z,25.2
2014-07-13T02:06:53.010Z,25.2
2014-07-13T02:07:10.604Z,25.2
2014-07-13T02:07:28.838Z,25.1
2014-07-13T02:07:46.434Z,25.1
2014-07-13T02:08:04.027Z,25.1
2014-07-13T02:08:21.621Z,25.1
2014-07-13T02:08:39.858Z,25.2
2014-07-13T02:08:58.092Z,25.2
2014-07-13T02:09:15.686Z,25.1
2014-07-13T02:09:32.029Z,25.1
2014-07-13T02:09:48.375Z,25.1
2014-07-13T02:10:05.985Z,25.1
2014-07-13T02:10:23.578Z,25.1
2014-07-13T02:10:41.815Z,25.1
2014-07-13T02:10:59.408Z,25.1
2014-07-13T02:11:17.002Z,25.1
2014-07-13T02:11:33.989Z,25.1
2014-07-13T02:11:52.348Z,25.1
2014-07-13T02:12:09.942Z,25.1
2014-07-13T02:12:26.926Z,25.1
2014-07-13T02:12:45.147Z,25.1
2014-07-13T02:13:03.381Z,25.1
2014-07-13T02:13:20.975Z,25.1
2014-07-13T02:13:39.211Z,25.2
2014-07-13T02:13:56.930Z,25.2
2014-07-13T02:14:14.539Z,25.2
2014-07-13T02:14:32.133Z,25.1
2014-07-13T02:14:49.870Z,25.1
2014-07-13T02:15:08.104Z,25.1
2014-07-13T02:15:25.073Z,25.1
2014-07-13T02:15:43.308Z,25.1
2014-07-13T02:16:00.902Z,25.1
2014-07-13T02:16:19.136Z,25.1
2014-07-13T02:16:37.357Z,25.1
2014-07-13T02:16:53.716Z,25.1
2014-07-13T02:17:10.060Z,25.1
2014-07-13T02:17:28.279Z,25.1
2014-07-13T02:17:45.891Z,25.1
2014-07-13T02:18:03.485Z,25.1
2014-07-13T02:18:21.719Z,25.1
2014-07-13T02:18:39.315Z,25.1
2014-07-13T02:18:56.909Z,25.1
2014-07-13T02:19:15.143Z,25.1
2014-07-13T02:19:32.737Z,25.1
2014-07-13T02:19:50.332Z,25.1
2014-07-13T02:20:07.941Z,25.1
2014-07-13T02:20:25.550Z,25.1
2014-07-13T02:20:43.146Z,25.1
2014-07-13T02:21:01.365Z,25.1
2014-07-13T02:21:18.974Z,25.1
2014-07-13T02:21:36.711Z,25.1
2014-07-13T02:21:54.929Z,25.1
2014-07-13T02:22:12.539Z,25.1
2014-07-13T02:22:30.758Z,25.1
2014-07-13T02:22:48.369Z,25.1
2014-07-13T02:23:06.603Z,25.1
2014-07-13T02:23:24.213Z,25.1
2014-07-13T02:23:42.449Z,25.1
2014-07-13T02:24:00.668Z,25.1
2014-07-13T02:24:18.902Z,25.1
2014-07-13T02:24:36.498Z,25.1
2014-07-13T02:24:54.092Z,25.1
2014-07-13T02:25:11.701Z,25.1
2014-07-13T02:25:29.295Z,25.1
2014-07-13T02:25:46.890Z,25.1
2014-07-13T02:26:05.124Z,25.1
2014-07-13T02:26:23.358Z,25.1
2014-07-13T02:26:40.955Z,25.1
2014-07-13T02:26:59.189Z,25.1
2014-07-13T02:27:16.783Z,25.1
2014-07-13T02:27:35.004Z,25.1
2014-07-13T02:27:52.613Z,25.1
2014-07-13T02:28:10.832Z,25.1
2014-07-13T02:28:29.066Z,25.1
2014-07-13T02:28:46.677Z,25.1
2014-07-13T02:29:04.896Z,25.1
2014-07-13T02:29:23.130Z,25.1
2014-07-13T02:29:41.351Z,25.1
2014-07-13T02:29:59.585Z,25.1
2014-07-13T02:30:17.851Z,25.1
2014-07-13T02:30:35.416Z,25.1
2014-07-13T02:30:52.385Z,25.1
2014-07-13T02:31:10.619Z,25.1
2014-07-13T02:31:28.854Z,25.1
2014-07-13T02:31:46.449Z,25.1
2014-07-13T02:32:02.793Z,25.1
2014-07-13T02:32:20.528Z,25
2014-07-13T02:32:38.139Z,25
2014-07-13T02:32:55.733Z,25
2014-07-13T02:33:13.342Z,25
2014-07-13T02:33:31.561Z,25
2014-07-13T02:33:49.156Z,25
2014-07-13T02:34:06.890Z,25
2014-07-13T02:34:25.124Z,25
2014-07-13T02:34:42.095Z,25
2014-07-13T02:34:59.689Z,25
2014-07-13T02:35:17.923Z,25
2014-07-13T02:35:35.535Z,25
2014-07-13T02:35:53.128Z,25
2014-07-13T02:36:10.097Z,25
2014-07-13T02:36:28.316Z,25
2014-07-13T02:36:46.551Z,25
2014-07-13T02:37:04.770Z,25
2014-07-13T02:37:22.379Z,25
2014-07-13T02:37:40.742Z,25
2014-07-13T02:37:58.976Z,25
2014-07-13T02:38:16.570Z,25
2014-07-13T02:38:33.554Z,25
2014-07-13T02:38:51.791Z,25
2014-07-13T02:39:10.009Z,25
2014-07-13T02:39:27.619Z,25
2014-07-13T02:39:45.214Z,25
2014-07-13T02:40:02.824Z,25
2014-07-13T02:40:21.043Z,25
2014-07-13T02:40:38.027Z,25
2014-07-13T02:40:56.248Z,25
2014-07-13T02:41:14.482Z,25
2014-07-13T02:41:32.091Z,25
2014-07-13T02:41:48.437Z,25
2014-07-13T02:42:06.672Z,25
2014-07-13T02:42:24.890Z,25
2014-07-13T02:42:43.126Z,25
2014-07-13T02:43:01.485Z,25
2014-07-13T02:43:19.719Z,25
2014-07-13T02:43:37.938Z,25
2014-07-13T02:43:55.550Z,25
2014-07-13T02:44:13.143Z,24.9
2014-07-13T02:44:31.378Z,24.9
2014-07-13T02:44:49.615Z,25
2014-07-13T02:45:07.849Z,25
2014-07-13T02:45:26.068Z,25
2014-07-13T02:45:44.303Z,24.9
2014-07-13T02:46:02.539Z,25
2014-07-13T02:46:20.758Z,25
2014-07-13T02:46:38.992Z,25
2014-07-13T02:46:56.588Z,25
2014-07-13T02:47:14.822Z,25
2014-07-13T02:47:31.166Z,25
2014-07-13T02:47:49.402Z,25
2014-07-13T02:48:07.637Z,25
2014-07-13T02:48:25.871Z,25
2014-07-13T02:48:44.090Z,25
2014-07-13T02:49:02.325Z,25
2014-07-13T02:49:19.294Z,25
2014-07-13T02:49:36.263Z,25
2014-07-13T02:49:54.499Z,25
2014-07-13T02:50:12.718Z,25
2014-07-13T02:50:30.952Z,25
2014-07-13T02:50:49.173Z,25
2014-07-13T02:51:06.767Z,25
2014-07-13T02:51:24.501Z,24.9
2014-07-13T02:51:42.735Z,24.9
2014-07-13T02:51:59.706Z,24.9
2014-07-13T02:52:17.941Z,24.9
2014-07-13T02:52:36.175Z,24.9
2014-07-13T02:52:53.911Z,24.9
2014-07-13T02:53:12.130Z,24.9
2014-07-13T02:53:29.739Z,24.9
2014-07-13T02:53:47.960Z,24.9
2014-07-13T02:54:04.945Z,24.9
2014-07-13T02:54:23.163Z,24.9
2014-07-13T02:54:40.132Z,24.9
2014-07-13T02:54:58.368Z,24.9
2014-07-13T02:55:15.978Z,24.9
2014-07-13T02:55:34.197Z,24.9
2014-07-13T02:55:51.807Z,24.9
2014-07-13T02:56:10.041Z,24.9
2014-07-13T02:56:28.260Z,24.9
2014-07-13T02:56:46.494Z,24.9
2014-07-13T02:57:04.732Z,24.9
2014-07-13T02:57:22.341Z,24.9
2014-07-13T02:57:39.935Z,24.9
2014-07-13T02:57:57.530Z,24.9
2014-07-13T02:58:15.264Z,24.9
2014-07-13T02:58:32.873Z,24.9
2014-07-13T02:58:51.095Z,24.9
2014-07-13T02:59:09.330Z,24.9
2014-07-13T02:59:27.564Z,24.9
2014-07-13T02:59:45.158Z,24.9
2014-07-13T03:00:02.769Z,24.9
2014-07-13T03:00:21.003Z,24.9
2014-07-13T03:00:38.597Z,24.9
2014-07-13T03:00:56.192Z,24.9
2014-07-13T03:01:13.161Z,24.9
2014-07-13T03:01:30.770Z,24.9
2014-07-13T03:01:49.004Z,24.9
2014-07-13T03:02:07.225Z,24.9
2014-07-13T03:02:24.835Z,24.9
2014-07-13T03:02:42.444Z,24.9
2014-07-13T03:03:00.041Z,24.9
2014-07-13T03:03:18.275Z,24.9
2014-07-13T03:03:35.884Z,24.9
2014-07-13T03:03:54.120Z,25
2014-07-13T03:04:11.729Z,24.9
2014-07-13T03:04:29.964Z,24.9
2014-07-13T03:04:48.198Z,24.9
2014-07-13T03:05:06.420Z,24.9
2014-07-13T03:05:23.404Z,24.9
2014-07-13T03:05:41.638Z,24.9
2014-07-13T03:05:59.249Z,24.9
2014-07-13T03:06:16.843Z,24.9
2014-07-13T03:06:33.827Z,24.9
2014-07-13T03:06:52.061Z,24.9
2014-07-13T03:07:10.298Z,24.9
2014-07-13T03:07:28.532Z,24.9
2014-07-13T03:07:46.766Z,24.9
2014-07-13T03:08:05.004Z,24.9
2014-07-13T03:08:21.973Z,24.9
2014-07-13T03:08:40.207Z,24.9
2014-07-13T03:08:57.816Z,24.9
2014-07-13T03:09:14.178Z,24.9
2014-07-13T03:09:32.412Z,24.9
2014-07-13T03:09:50.646Z,24.9
2014-07-13T03:10:08.240Z,24.9
2014-07-13T03:10:25.851Z,24.9
2014-07-13T03:10:43.460Z,24.9
2014-07-13T03:11:01.069Z,24.9
2014-07-13T03:11:19.307Z,24.9
2014-07-13T03:11:37.541Z,24.9
2014-07-13T03:11:55.775Z,24.9
2014-07-13T03:12:13.369Z,24.9
2014-07-13T03:12:29.715Z,24.9
2014-07-13T03:12:47.949Z,24.9
2014-07-13T03:13:06.184Z,24.9
2014-07-13T03:13:23.295Z,24.9
2014-07-13T03:13:41.529Z,24.9
2014-07-13T03:13:59.139Z,24.9
2014-07-13T03:14:17.373Z,24.9
2014-07-13T03:14:34.344Z,24.9
2014-07-13T03:14:51.328Z,24.9
2014-07-13T03:15:09.563Z,24.9
2014-07-13T03:15:27.173Z,24.9
2014-07-13T03:15:45.407Z,24.9
2014-07-13T03:16:02.376Z,24.9
2014-07-13T03:16:19.986Z,24.9
2014-07-13T03:16:38.223Z,24.9
2014-07-13T03:16:55.817Z,24.8
2014-07-13T03:17:12.801Z,24.9
2014-07-13T03:17:31.037Z,24.8
2014-07-13T03:17:49.272Z,24.8
2014-07-13T03:18:06.866Z,24.8
2014-07-13T03:18:24.475Z,24.9
2014-07-13T03:18:41.460Z,24.8
2014-07-13T03:18:59.054Z,24.8
2014-07-13T03:19:16.663Z,24.9
2014-07-13T03:19:33.635Z,24.8
2014-07-13T03:19:51.245Z,24.8
2014-07-13T03:20:08.854Z,24.8
2014-07-13T03:20:25.823Z,24.8
2014-07-13T03:20:42.809Z,24.8
2014-07-13T03:21:01.043Z,24.8
2014-07-13T03:21:19.278Z,24.8
2014-07-13T03:21:36.873Z,24.8
2014-07-13T03:21:53.982Z,24.8
2014-07-13T03:22:12.216Z,24.8
2014-07-13T03:22:29.826Z,24.8
2014-07-13T03:22:48.062Z,24.8
2014-07-13T03:23:05.656Z,24.8
2014-07-13T03:23:22.640Z,24.8
2014-07-13T03:23:40.877Z,24.8
2014-07-13T03:23:58.486Z,24.8
2014-07-13T03:24:16.080Z,24.8
2014-07-13T03:24:34.316Z,24.8
2014-07-13T03:24:52.550Z,24.8
2014-07-13T03:25:10.160Z,24.8
2014-07-13T03:25:27.754Z,24.8
2014-07-13T03:25:45.990Z,24.8
2014-07-13T03:26:02.349Z,24.8
2014-07-13T03:26:20.584Z,24.8
2014-07-13T03:26:37.554Z,24.8
2014-07-13T03:26:55.789Z,24.8
2014-07-13T03:27:14.023Z,24.8
2014-07-13T03:27:32.258Z,24.8
2014-07-13T03:27:49.244Z,24.8
2014-07-13T03:28:06.853Z,24.8
2014-07-13T03:28:25.088Z,24.8
2014-07-13T03:28:43.324Z,24.8
2014-07-13T03:29:00.293Z,24.8
2014-07-13T03:29:18.043Z,24.8
2014-07-13T03:29:36.279Z,24.8
2014-07-13T03:29:53.889Z,24.8
2014-07-13T03:30:10.873Z,24.8
2014-07-13T03:30:28.482Z,24.8
2014-07-13T03:30:46.719Z,24.8
2014-07-13T03:31:04.937Z,24.8
2014-07-13T03:31:23.187Z,24.8
2014-07-13T03:31:40.157Z,24.8
2014-07-13T03:31:58.392Z,24.8
2014-07-13T03:32:16.001Z,24.8
2014-07-13T03:32:32.970Z,24.8
2014-07-13T03:32:50.581Z,24.8
2014-07-13T03:33:08.190Z,24.8
2014-07-13T03:33:26.425Z,24.8
2014-07-13T03:33:44.661Z,24.8
2014-07-13T03:34:02.896Z,24.8
2014-07-13T03:34:20.505Z,24.8
2014-07-13T03:34:38.101Z,24.8
2014-07-13T03:34:56.476Z,24.8
2014-07-13T03:35:14.710Z,24.8
2014-07-13T03:35:32.944Z,24.8
2014-07-13T03:35:51.181Z,24.8
2014-07-13T03:36:07.525Z,24.8
2014-07-13T03:36:25.134Z,24.8
2014-07-13T03:36:43.370Z,24.8
2014-07-13T03:37:00.980Z,24.8
2014-07-13T03:37:18.573Z,24.8
2014-07-13T03:37:36.185Z,24.8
2014-07-13T03:37:54.419Z,24.8
2014-07-13T03:38:12.654Z,24.8
2014-07-13T03:38:29.622Z,24.8
2014-07-13T03:38:47.234Z,24.8
2014-07-13T03:39:04.218Z,24.8
2014-07-13T03:39:21.827Z,24.8
2014-07-13T03:39:39.439Z,24.8
2014-07-13T03:39:57.673Z,24.8
2014-07-13T03:40:15.892Z,24.8
2014-07-13T03:40:34.144Z,24.8
2014-07-13T03:40:51.738Z,24.8
2014-07-13T03:41:09.347Z,24.8
2014-07-13T03:41:26.941Z,24.8
2014-07-13T03:41:45.177Z,24.8
2014-07-13T03:42:00.912Z,24.8
2014-07-13T03:42:19.146Z,24.8
2014-07-13T03:42:36.741Z,24.8
2014-07-13T03:42:54.975Z,24.8
2014-07-13T03:43:13.209Z,24.8
2014-07-13T03:43:30.819Z,24.8
2014-07-13T03:43:48.415Z,24.8
2014-07-13T03:44:06.024Z,24.8
2014-07-13T03:44:23.633Z,24.8
2014-07-13T03:44:41.871Z,24.8
2014-07-13T03:45:00.105Z,24.8
2014-07-13T03:45:17.714Z,24.8
2014-07-13T03:45:35.310Z,24.8
2014-07-13T03:45:53.560Z,24.8
2014-07-13T03:46:11.154Z,24.8
2014-07-13T03:46:28.763Z,24.8
2014-07-13T03:46:46.999Z,24.8
2014-07-13T03:47:05.233Z,24.8
2014-07-13T03:47:23.452Z,24.8
2014-07-13T03:47:41.204Z,24.8
2014-07-13T03:47:58.798Z,24.8
2014-07-13T03:48:17.032Z,24.8
2014-07-13T03:48:35.268Z,24.8
2014-07-13T03:48:52.878Z,24.8
2014-07-13T03:49:10.471Z,24.8
2014-07-13T03:49:28.081Z,24.7
2014-07-13T03:49:45.677Z,24.7
2014-07-13T03:50:02.661Z,24.7
2014-07-13T03:50:20.270Z,24.8
2014-07-13T03:50:37.882Z,24.8
2014-07-13T03:50:54.225Z,24.7
2014-07-13T03:51:12.460Z,24.8
2014-07-13T03:51:29.444Z,24.7
2014-07-13T03:51:47.665Z,24.7
2014-07-13T03:52:05.274Z,24.7
2014-07-13T03:52:23.509Z,24.7
2014-07-13T03:52:41.870Z,24.7
2014-07-13T03:52:58.854Z,24.7
2014-07-13T03:53:17.089Z,24.7
2014-07-13T03:53:35.308Z,24.7
2014-07-13T03:53:53.544Z,24.7
2014-07-13T03:54:11.169Z,24.7
2014-07-13T03:54:28.763Z,24.7
2014-07-13T03:54:46.999Z,24.7
2014-07-13T03:55:04.608Z,24.7
2014-07-13T03:55:22.202Z,24.7
2014-07-13T03:55:39.823Z,24.7
2014-07-13T03:55:57.432Z,24.7
2014-07-13T03:56:15.041Z,24.7
2014-07-13T03:56:33.276Z,24.6
2014-07-13T03:56:50.911Z,24.6
2014-07-13T03:57:09.146Z,24.6
2014-07-13T03:57:27.380Z,24.7
2014-07-13T03:57:45.656Z,24.7
2014-07-13T03:58:03.249Z,24.7
2014-07-13T03:58:19.609Z,24.7